Time;durP1;ratioP1;P1;durP2;ratioP2;P2;SDS_P1;SDS_P2;PMS_P1;PMS_P2;Temp;Humidity;BMP_temperature;BMP_pressure;BME280_temperature;BME280_humidity;BME280_pressure;Samples;Min_cycle;Max_cycle;Signal;HPM_P1;HPM_P2
2022/11/28 00:01:14;;;;;;;32.60;13.60;;;7.50;1.00;;;;;;4952136;28;20193;-85
2022/11/28 00:03:40;;;;;;;22.40;13.52;;;7.60;1.00;;;;;;4958717;28;20240;-85
2022/11/28 00:06:06;;;;;;;19.90;11.47;;;7.60;1.00;;;;;;4958262;28;20255;-85
2022/11/28 00:08:32;;;;;;;20.98;13.90;;;7.60;1.00;;;;;;4958224;29;20244;-85
2022/11/28 00:11:02;;;;;;;24.38;13.25;;;7.70;1.00;;;;;;4959896;29;20265;-84
2022/11/28 00:13:28;;;;;;;18.20;12.35;;;7.70;1.00;;;;;;4958089;29;20192;-86
2022/11/28 00:15:58;;;;;;;20.50;11.97;;;7.70;1.00;;;;;;4955528;28;20571;-84
2022/11/28 00:18:24;;;;;;;16.23;12.70;;;7.60;1.00;;;;;;4957785;28;20267;-85
2022/11/28 00:20:50;;;;;;;20.73;11.10;;;7.70;1.00;;;;;;4958110;28;20205;-85
2022/11/28 00:23:15;;;;;;;19.25;11.27;;;7.70;1.00;;;;;;4957179;28;20181;-85
2022/11/28 00:25:41;;;;;;;15.03;11.33;;;7.70;1.00;;;;;;4958120;28;22089;-84
2022/11/28 00:28:06;;;;;;;14.50;10.07;;;7.60;1.00;;;;;;4963113;28;20220;-83
2022/11/28 00:30:36;;;;;;;19.60;10.27;;;7.60;1.00;;;;;;4957627;28;20185;-85
2022/11/28 00:33:01;;;;;;;13.35;10.50;;;7.70;1.00;;;;;;4954292;28;20185;-85
2022/11/28 00:35:27;;;;;;;14.80;10.53;;;7.70;1.00;;;;;;4955783;28;20216;-85
2022/11/28 00:37:52;;;;;;;11.53;8.53;;;7.70;1.00;;;;;;4957401;28;20189;-86
2022/11/28 00:40:18;;;;;;;13.87;10.17;;;7.70;1.00;;;;;;4956839;28;20260;-85
2022/11/28 00:42:43;;;;;;;15.13;10.47;;;7.70;1.00;;;;;;4958572;28;20203;-84
2022/11/28 00:45:09;;;;;;;13.43;9.73;;;7.80;1.00;;;;;;4956082;28;20232;-86
2022/11/28 00:47:34;;;;;;;14.90;10.53;;;7.70;1.00;;;;;;4958777;28;20269;-85
2022/11/28 00:50:00;;;;;;;10.43;8.43;;;7.80;1.00;;;;;;4955215;28;20189;-86
2022/11/28 00:52:26;;;;;;;15.00;9.27;;;7.80;1.00;;;;;;4957260;28;20181;-85
2022/11/28 00:54:51;;;;;;;14.20;9.23;;;7.80;1.00;;;;;;4957178;28;20226;-87
2022/11/28 00:57:17;;;;;;;13.83;9.37;;;7.80;1.00;;;;;;4958132;28;20193;-84
2022/11/28 00:59:42;;;;;;;12.77;9.47;;;7.80;1.00;;;;;;4958986;28;20604;-85
2022/11/28 01:02:08;;;;;;;15.73;9.40;;;7.80;1.00;;;;;;4961980;29;20904;-86
2022/11/28 01:04:33;;;;;;;15.20;9.47;;;7.80;1.00;;;;;;4958856;28;20208;-85
2022/11/28 01:06:59;;;;;;;13.93;9.73;;;7.80;1.00;;;;;;4975348;28;20208;-85
2022/11/28 01:09:24;;;;;;;12.23;9.50;;;7.80;1.00;;;;;;4978428;29;20188;-88
2022/11/28 01:11:52;;;;;;;12.03;8.73;;;7.80;1.00;;;;;;4947777;29;20184;-84
2022/11/28 01:14:20;;;;;;;17.00;9.02;;;7.80;1.00;;;;;;4957260;28;20200;-84
2022/11/28 01:16:45;;;;;;;15.65;10.02;;;7.80;1.00;;;;;;4957135;28;20191;-83
2022/11/28 01:19:12;;;;;;;12.93;9.77;;;7.80;1.00;;;;;;4957120;29;20264;-83
2022/11/28 01:21:38;;;;;;;12.90;9.65;;;7.80;1.00;;;;;;4952556;28;20338;-84
2022/11/28 01:24:04;;;;;;;12.00;9.13;;;7.90;1.00;;;;;;4960652;28;20256;-84
2022/11/28 01:26:30;;;;;;;13.40;9.23;;;7.90;1.00;;;;;;4959687;28;20456;-86
2022/11/28 01:28:56;;;;;;;12.50;8.73;;;7.90;1.00;;;;;;4953987;28;20224;-83
2022/11/28 01:31:24;;;;;;;12.02;9.15;;;7.90;1.00;;;;;;4954777;28;20185;-85
2022/11/28 01:33:51;;;;;;;11.93;8.68;;;8.00;1.00;;;;;;4954415;28;20203;-84
2022/11/28 01:36:18;;;;;;;13.05;9.60;;;8.00;1.00;;;;;;4954173;28;20197;-84
2022/11/28 01:38:44;;;;;;;11.80;8.10;;;8.00;1.00;;;;;;4957219;28;20192;-84
2022/11/28 01:41:11;;;;;;;16.13;9.13;;;8.00;1.00;;;;;;4955389;28;20228;-83
2022/11/28 01:43:54;;;;;;;15.48;9.43;;;8.10;1.00;;;;;;4953918;28;20188;-83
2022/11/28 01:46:19;;;;;;;16.05;9.00;;;8.10;1.00;;;;;;4954717;28;20209;-84
2022/11/28 01:48:45;;;;;;;15.80;8.30;;;8.10;1.00;;;;;;4955455;28;20224;-84
2022/11/28 01:51:10;;;;;;;11.20;7.70;;;8.20;1.00;;;;;;4953629;28;20759;-84
2022/11/28 01:53:41;;;;;;;14.93;9.23;;;8.20;1.00;;;;;;4954606;28;20548;-83
2022/11/28 01:56:13;;;;;;;12.25;8.50;;;8.20;1.00;;;;;;4955269;28;20215;-84
2022/11/28 01:58:41;;;;;;;13.75;9.30;;;8.20;1.00;;;;;;4939207;29;20568;-84
2022/11/28 02:01:08;;;;;;;11.35;8.18;;;8.20;1.00;;;;;;4954004;28;20189;-85
2022/11/28 02:03:40;;;;;;;13.60;8.52;;;8.30;1.00;;;;;;4953726;28;20207;-84
2022/11/28 02:06:07;;;;;;;14.25;9.50;;;8.30;1.00;;;;;;4955100;28;20200;-85
2022/11/28 02:08:34;;;;;;;14.45;8.95;;;8.30;1.00;;;;;;4957560;29;20629;-84
2022/11/28 02:11:13;;;;;;;17.92;11.23;;;8.30;1.00;;;;;;4956375;28;20770;-84
2022/11/28 02:14:02;;;;;;;14.75;10.18;;;8.20;1.00;;;;;;4951338;29;20195;-84
2022/11/28 02:16:48;;;;;;;13.57;9.90;;;8.20;1.00;;;;;;4954179;28;20189;-86
2022/11/28 02:19:32;;;;;;;15.60;9.80;;;8.20;1.00;;;;;;4957143;29;20237;-85
2022/11/28 02:22:07;;;;;;;19.00;11.20;;;8.20;1.00;;;;;;4955173;29;20244;-85
2022/11/28 02:24:55;;;;;;;15.07;10.60;;;8.20;1.00;;;;;;4956624;28;20204;-84
2022/11/28 02:28:10;;;;;;;15.95;10.00;;;8.20;1.00;;;;;;4957624;28;20217;-84
2022/11/28 02:31:03;;;;;;;14.70;9.48;;;8.20;1.00;;;;;;4956923;29;20189;-84
2022/11/28 02:33:58;;;;;;;15.15;9.75;;;8.30;1.00;;;;;;4955751;28;20200;-84
2022/11/28 02:36:32;;;;;;;18.90;10.55;;;8.30;1.00;;;;;;4955129;28;20189;-84
2022/11/28 02:39:19;;;;;;;16.80;9.80;;;8.30;1.00;;;;;;4944716;29;20184;-84
2022/11/28 02:42:06;;;;;;;18.45;9.88;;;8.40;1.00;;;;;;4956852;28;20192;-85
2022/11/28 02:44:50;;;;;;;12.07;9.70;;;8.40;1.00;;;;;;4957166;28;20205;-87
2022/11/28 02:47:49;;;;;;;16.23;9.73;;;8.40;1.00;;;;;;4937734;28;20228;-85
2022/11/28 02:50:25;;;;;;;18.00;9.73;;;8.40;1.00;;;;;;4875833;28;20461;-85
2022/11/28 02:52:56;;;;;;;14.82;9.18;;;8.40;1.00;;;;;;4957592;28;20201;-85
2022/11/28 02:55:22;;;;;;;13.00;10.00;;;8.40;1.00;;;;;;4958251;28;20639;-85
2022/11/28 02:57:51;;;;;;;13.43;9.90;;;8.40;1.00;;;;;;4943428;29;20196;-85
2022/11/28 03:00:26;;;;;;;16.05;9.15;;;8.40;1.00;;;;;;4958521;28;20199;-86
2022/11/28 03:03:20;;;;;;;21.77;10.60;;;8.30;1.00;;;;;;4956602;28;20291;-84
2022/11/28 03:05:56;;;;;;;23.25;10.65;;;8.30;1.00;;;;;;4958108;28;20550;-85
2022/11/28 03:08:33;;;;;;;18.25;10.45;;;8.30;1.00;;;;;;4958645;29;20219;-85
2022/11/28 03:11:23;;;;;;;20.48;12.02;;;8.20;1.00;;;;;;4958331;29;20680;-85
2022/11/28 03:14:00;;;;;;;22.48;11.82;;;8.10;1.00;;;;;;4958618;29;20211;-84
2022/11/28 03:16:29;;;;;;;31.77;13.05;;;8.10;1.00;;;;;;4959758;28;20182;-86
2022/11/28 03:19:10;;;;;;;29.63;12.40;;;8.10;1.00;;;;;;4959787;29;20197;-85
2022/11/28 03:21:59;;;;;;;26.85;11.63;;;8.10;1.00;;;;;;4951629;28;20192;-85
2022/11/28 03:24:37;;;;;;;21.55;11.35;;;8.00;1.00;;;;;;4958022;28;20434;-84
2022/11/28 03:27:27;;;;;;;20.52;11.70;;;8.00;1.00;;;;;;4954509;29;20680;-84
2022/11/28 03:29:58;;;;;;;24.30;11.73;;;8.10;1.00;;;;;;4945368;29;20216;-84
2022/11/28 03:32:31;;;;;;;19.90;11.20;;;8.00;1.00;;;;;;4958974;29;20192;-85
2022/11/28 03:35:06;;;;;;;19.38;11.93;;;8.10;1.00;;;;;;4942177;29;20209;-84
2022/11/28 03:37:37;;;;;;;25.02;11.40;;;8.10;1.00;;;;;;4957707;28;20212;-85
2022/11/28 03:40:07;;;;;;;22.17;12.27;;;8.10;1.00;;;;;;4956861;28;20192;-85
2022/11/28 03:42:41;;;;;;;24.92;11.25;;;8.10;1.00;;;;;;4957905;28;20212;-86
2022/11/28 03:45:23;;;;;;;22.15;10.75;;;8.10;1.00;;;;;;4958857;28;20216;-85
2022/11/28 03:47:56;;;;;;;23.30;10.57;;;8.10;1.00;;;;;;4959807;28;20857;-85
2022/11/28 03:50:30;;;;;;;18.05;10.15;;;8.10;1.00;;;;;;4957742;28;20199;-85
2022/11/28 03:53:06;;;;;;;18.23;11.20;;;8.10;1.00;;;;;;4952153;28;20550;-85
2022/11/28 03:55:40;;;;;;;17.77;10.23;;;8.10;1.00;;;;;;4941635;28;20230;-87
2022/11/28 03:58:11;;;;;;;17.50;10.43;;;8.00;1.00;;;;;;4958934;28;20711;-85
2022/11/28 04:01:00;;;;;;;17.58;10.55;;;8.00;1.00;;;;;;4955048;28;20199;-85
2022/11/28 04:03:48;;;;;;;19.67;10.68;;;8.00;1.00;;;;;;4956574;28;20196;-86
2022/11/28 04:06:25;;;;;;;24.42;12.23;;;8.00;1.00;;;;;;4956563;28;20207;-85
2022/11/28 04:09:07;;;;;;;20.33;11.57;;;8.00;1.00;;;;;;4956284;28;20235;-86
2022/11/28 04:11:43;;;;;;;21.23;12.27;;;8.10;1.00;;;;;;4959044;28;20192;-85
2022/11/28 04:14:22;;;;;;;18.75;11.15;;;8.00;1.00;;;;;;4958083;28;20650;-85
2022/11/28 04:17:02;;;;;;;18.52;10.77;;;8.10;1.00;;;;;;4962342;28;20211;-84
2022/11/28 04:19:38;;;;;;;19.17;10.25;;;8.10;1.00;;;;;;4958840;28;20188;-87
2022/11/28 04:22:28;;;;;;;22.88;11.55;;;8.10;1.00;;;;;;4941671;29;20192;-86
2022/11/28 04:24:59;;;;;;;22.27;11.15;;;8.10;1.00;;;;;;4956508;28;20204;-86
2022/11/28 04:27:32;;;;;;;21.77;12.30;;;8.10;1.00;;;;;;4958836;29;20553;-86
2022/11/28 04:30:00;;;;;;;21.98;12.30;;;8.20;1.00;;;;;;4958090;28;20173;-85
2022/11/28 04:32:28;;;;;;;19.03;11.33;;;8.20;1.00;;;;;;4966005;29;20201;-86
2022/11/28 04:35:01;;;;;;;22.87;11.90;;;8.20;1.00;;;;;;4974734;28;20548;-86
2022/11/28 04:37:28;;;;;;;18.73;11.43;;;8.20;1.00;;;;;;4962714;29;20432;-84
2022/11/28 04:39:55;;;;;;;26.23;12.55;;;8.20;1.00;;;;;;4954109;29;20507;-83
2022/11/28 04:42:38;;;;;;;19.88;11.80;;;8.20;1.00;;;;;;4935618;28;20552;-86
2022/11/28 04:45:09;;;;;;;20.58;11.73;;;8.20;1.00;;;;;;4953144;28;20340;-83
2022/11/28 04:47:34;;;;;;;22.40;11.80;;;8.20;1.00;;;;;;4951891;29;20295;-83
2022/11/28 04:50:00;;;;;;;22.50;11.17;;;8.10;1.00;;;;;;4952125;28;20523;-83
2022/11/28 04:52:36;;;;;;;25.10;10.20;;;8.10;1.00;;;;;;4949907;28;20185;-85
2022/11/28 04:55:39;;;;;;;22.17;11.00;;;8.10;1.00;;;;;;4951896;28;20216;-84
2022/11/28 04:58:13;;;;;;;17.70;10.77;;;8.10;1.00;;;;;;4945997;28;20185;-83
2022/11/28 05:00:39;;;;;;;24.08;11.52;;;8.00;1.00;;;;;;4946860;28;20527;-83
2022/11/28 05:03:06;;;;;;;20.70;11.07;;;8.10;1.00;;;;;;4951189;28;20192;-83
2022/11/28 05:05:44;;;;;;;18.95;10.10;;;8.00;1.00;;;;;;4950549;28;20229;-83
2022/11/28 05:08:10;;;;;;;19.58;10.38;;;8.00;1.00;;;;;;4945715;28;20307;-83
2022/11/28 05:10:36;;;;;;;20.47;10.50;;;8.10;1.00;;;;;;4950462;28;20184;-84
2022/11/28 05:13:02;;;;;;;25.60;12.00;;;8.10;1.00;;;;;;4950867;28;20524;-84
2022/11/28 05:15:27;;;;;;;21.57;11.90;;;8.00;1.00;;;;;;4951697;28;20463;-84
2022/11/28 05:17:52;;;;;;;20.97;11.97;;;8.00;1.00;;;;;;4950655;28;20951;-83
2022/11/28 05:20:18;;;;;;;23.20;12.40;;;8.00;1.00;;;;;;4950835;28;20209;-83
2022/11/28 05:22:43;;;;;;;27.20;12.40;;;8.00;1.00;;;;;;4952705;28;20569;-83
2022/11/28 05:25:09;;;;;;;17.30;11.63;;;7.90;1.00;;;;;;4948186;28;20209;-83
2022/11/28 05:27:35;;;;;;;28.77;14.17;;;8.00;1.00;;;;;;4953055;28;20205;-84
2022/11/28 05:30:00;;;;;;;23.10;13.60;;;8.00;1.00;;;;;;4938628;29;20177;-84
2022/11/28 05:32:29;;;;;;;25.93;14.77;;;7.90;1.00;;;;;;4954044;28;20182;-83
2022/11/28 05:34:55;;;;;;;33.05;14.90;;;7.90;1.00;;;;;;4952954;28;20197;-82
2022/11/28 05:37:20;;;;;;;29.50;14.87;;;7.90;1.00;;;;;;4952634;28;20193;-83
2022/11/28 05:39:46;;;;;;;32.43;16.73;;;7.80;1.00;;;;;;4950528;28;20189;-85
2022/11/28 05:42:11;;;;;;;34.93;15.97;;;7.90;1.00;;;;;;4951754;28;20232;-84
2022/11/28 05:44:37;;;;;;;35.73;16.50;;;7.80;1.00;;;;;;4949002;28;20314;-86
2022/11/28 05:47:02;;;;;;;27.87;15.10;;;7.80;1.00;;;;;;4954589;28;20212;-84
2022/11/28 05:49:28;;;;;;;31.17;17.40;;;7.80;1.00;;;;;;4957535;28;20324;-84
2022/11/28 05:51:53;;;;;;;27.83;16.10;;;7.80;1.00;;;;;;4957495;28;20189;-86
2022/11/28 05:54:19;;;;;;;30.90;15.23;;;7.70;1.00;;;;;;4956767;28;21034;-86
2022/11/28 05:56:44;;;;;;;32.63;17.10;;;7.70;1.00;;;;;;4958401;28;20247;-85
2022/11/28 05:59:12;;;;;;;32.13;17.07;;;7.70;1.00;;;;;;4956522;28;20204;-86
2022/11/28 06:01:37;;;;;;;32.58;15.52;;;7.70;1.00;;;;;;4956993;28;20184;-84
2022/11/28 06:04:03;;;;;;;33.10;16.70;;;7.70;1.00;;;;;;4957099;28;20263;-85
2022/11/28 06:06:33;;;;;;;32.70;16.60;;;7.70;1.00;;;;;;4956543;28;20219;-85
2022/11/28 06:08:59;;;;;;;30.58;17.55;;;7.70;1.00;;;;;;4958786;28;20224;-84
2022/11/28 06:11:27;;;;;;;35.27;16.70;;;7.70;1.00;;;;;;4958061;28;20197;-82
2022/11/28 06:13:53;;;;;;;35.83;17.70;;;7.80;1.00;;;;;;4957213;28;20437;-86
2022/11/28 06:16:21;;;;;;;28.30;17.70;;;7.70;1.00;;;;;;4952478;28;20614;-86
2022/11/28 06:18:47;;;;;;;37.13;17.25;;;7.80;1.00;;;;;;4961356;28;20196;-83
2022/11/28 06:21:14;;;;;;;31.10;17.37;;;7.70;1.00;;;;;;4960701;29;20185;-85
2022/11/28 06:23:40;;;;;;;29.45;15.95;;;7.80;1.00;;;;;;4960223;29;20452;-85
2022/11/28 06:26:08;;;;;;;30.45;15.70;;;7.80;1.00;;;;;;4959870;28;20213;-86
2022/11/28 06:28:34;;;;;;;34.22;17.50;;;7.80;1.00;;;;;;4961900;29;20224;-85
2022/11/28 06:31:00;;;;;;;34.22;15.90;;;7.90;1.00;;;;;;4961939;28;20207;-84
2022/11/28 06:33:25;;;;;;;32.63;17.03;;;7.90;1.00;;;;;;4957373;28;20185;-86
2022/11/28 06:35:51;;;;;;;30.87;17.17;;;7.90;1.00;;;;;;4942883;29;20193;-85
2022/11/28 06:38:16;;;;;;;30.77;15.97;;;7.90;1.00;;;;;;4958668;28;20550;-86
2022/11/28 06:40:42;;;;;;;30.30;17.40;;;7.90;1.00;;;;;;4961108;29;20189;-86
2022/11/28 06:43:07;;;;;;;27.27;16.33;;;7.80;1.00;;;;;;4948264;29;20213;-86
2022/11/28 06:45:34;;;;;;;32.47;14.93;;;7.90;1.00;;;;;;4966776;28;20197;-86
2022/11/28 06:48:00;;;;;;;25.88;15.50;;;7.90;1.00;;;;;;4968031;28;20209;-87
2022/11/28 06:50:25;;;;;;;31.85;16.13;;;7.90;1.00;;;;;;4967956;28;20618;-85
2022/11/28 06:52:53;;;;;;;27.47;16.67;;;7.90;1.00;;;;;;4976114;28;20229;-85
2022/11/28 06:55:19;;;;;;;29.85;17.15;;;8.00;1.00;;;;;;4970587;28;20204;-86
2022/11/28 06:57:44;;;;;;;29.07;16.40;;;8.00;1.00;;;;;;4969485;28;20587;-86
2022/11/28 07:00:10;;;;;;;26.67;15.50;;;8.00;1.00;;;;;;4969312;28;20192;-87
2022/11/28 07:02:36;;;;;;;26.58;15.07;;;8.10;1.00;;;;;;4964152;28;20248;-86
2022/11/28 07:05:01;;;;;;;20.77;14.93;;;8.10;1.00;;;;;;4969058;28;20431;-86
2022/11/28 07:07:27;;;;;;;27.33;16.73;;;8.10;1.00;;;;;;4969202;28;20625;-86
2022/11/28 07:09:52;;;;;;;23.40;15.70;;;8.20;1.00;;;;;;4959234;28;20174;-87
2022/11/28 07:12:18;;;;;;;20.87;14.63;;;8.20;1.00;;;;;;4964202;28;20255;-86
2022/11/28 07:14:44;;;;;;;24.57;15.17;;;8.30;1.00;;;;;;4961541;28;20692;-85
2022/11/28 07:17:09;;;;;;;25.30;14.90;;;8.30;1.00;;;;;;4967958;28;20191;-85
2022/11/28 07:19:35;;;;;;;26.40;13.77;;;8.30;1.00;;;;;;4970874;28;20187;-85
2022/11/28 07:22:00;;;;;;;31.47;16.07;;;8.40;1.00;;;;;;4979142;28;20240;-86
2022/11/28 07:24:26;;;;;;;23.70;14.93;;;8.40;1.00;;;;;;4948799;28;20781;-86
2022/11/28 07:26:51;;;;;;;25.40;14.17;;;8.50;1.00;;;;;;4976414;28;20283;-86
2022/11/28 07:29:18;;;;;;;23.70;13.80;;;8.50;1.00;;;;;;4964488;28;20195;-86
2022/11/28 07:31:44;;;;;;;19.77;14.03;;;8.50;1.00;;;;;;4943611;29;20764;-85
2022/11/28 07:34:10;;;;;;;26.83;14.07;;;8.50;1.00;;;;;;4954050;28;20443;-86
2022/11/28 07:37:14;;;;;;;30.17;14.32;;;8.50;1.00;;;;;;4969457;28;20189;-86
2022/11/28 07:39:41;;;;;;;19.92;13.57;;;8.60;1.00;;;;;;4963792;28;20192;-86
2022/11/28 07:42:06;;;;;;;21.33;14.50;;;8.60;1.00;;;;;;4966303;28;20536;-86
2022/11/28 07:44:32;;;;;;;1036.53;614.37;;;8.60;1.00;;;;;;4966577;28;20211;-85
2022/11/28 07:46:57;;;;;;;26.70;17.37;;;8.60;1.00;;;;;;4972455;28;20282;-86
2022/11/28 07:49:23;;;;;;;30.80;21.57;;;8.70;1.00;;;;;;4961109;28;20176;-86
2022/11/28 07:51:49;;;;;;;24.10;15.73;;;8.70;1.00;;;;;;4959700;28;20637;-85
2022/11/28 07:54:14;;;;;;;25.13;16.47;;;8.70;1.00;;;;;;4963522;28;20181;-86
2022/11/28 07:56:40;;;;;;;27.23;16.10;;;8.80;1.00;;;;;;4963648;28;20315;-86
2022/11/28 07:59:06;;;;;;;31.27;14.90;;;8.80;1.00;;;;;;4964781;28;20184;-86
2022/11/28 08:01:36;;;;;;;27.40;14.47;;;8.80;1.00;;;;;;4958987;29;20200;-86
2022/11/28 08:04:04;;;;;;;24.77;15.02;;;8.80;1.00;;;;;;4980676;28;20441;-87
2022/11/28 08:06:33;;;;;;;24.57;14.23;;;8.90;1.00;;;;;;4965188;28;20195;-85
2022/11/28 08:08:59;;;;;;;27.95;16.33;;;8.90;1.00;;;;;;4956078;28;20452;-85
2022/11/28 08:11:27;;;;;;;22.03;13.77;;;8.90;1.00;;;;;;4964824;28;20574;-85
2022/11/28 08:13:52;;;;;;;26.60;16.58;;;8.90;1.00;;;;;;4965320;28;21407;-85
2022/11/28 08:16:20;;;;;;;29.50;17.10;;;8.80;1.00;;;;;;4952248;28;20209;-85
2022/11/28 08:18:47;;;;;;;25.00;15.80;;;8.90;1.00;;;;;;4954581;29;20184;-85
2022/11/28 08:21:24;;;;;;;22.70;15.17;;;8.90;1.00;;;;;;4954078;28;21180;-85
2022/11/28 08:23:51;;;;;;;25.33;15.77;;;8.90;1.00;;;;;;4957519;29;20534;-86
2022/11/28 08:26:19;;;;;;;23.93;15.10;;;8.90;1.00;;;;;;4953795;28;20494;-86
2022/11/28 08:28:46;;;;;;;24.25;16.10;;;9.00;1.00;;;;;;4955479;29;20484;-85
2022/11/28 08:31:17;;;;;;;27.70;16.40;;;9.00;1.00;;;;;;4941341;28;20316;-86
2022/11/28 08:34:06;;;;;;;28.50;16.13;;;9.00;1.00;;;;;;4950218;28;20184;-85
2022/11/28 08:36:52;;;;;;;23.77;15.00;;;9.00;1.00;;;;;;4952492;29;20432;-86
2022/11/28 08:39:18;;;;;;;21.30;14.23;;;9.00;1.00;;;;;;4941312;29;20555;-85
2022/11/28 08:41:44;;;;;;;35.33;29.90;;;9.00;1.00;;;;;;4954635;29;20469;-85
2022/11/28 08:44:09;;;;;;;26.40;20.10;;;9.00;1.00;;;;;;4949277;28;20480;-85
2022/11/28 08:46:35;;;;;;;21.50;13.13;;;9.00;1.00;;;;;;4954825;29;20249;-87
2022/11/28 08:49:01;;;;;;;18.63;12.97;;;9.00;1.00;;;;;;4951050;28;20231;-86
2022/11/28 08:51:28;;;;;;;25.23;14.43;;;9.00;1.00;;;;;;4949481;28;20181;-87
2022/11/28 08:53:55;;;;;;;20.17;14.17;;;9.10;1.00;;;;;;4932466;29;20185;-87
2022/11/28 08:56:21;;;;;;;25.10;15.80;;;9.10;1.00;;;;;;4931939;29;20529;-87
2022/11/28 08:58:46;;;;;;;25.10;15.23;;;9.20;1.00;;;;;;4950491;28;20473;-87
2022/11/28 09:01:23;;;;;;;22.33;14.33;;;9.10;1.00;;;;;;4956529;28;20717;-87
2022/11/28 09:03:59;;;;;;;30.80;21.03;;;9.20;1.00;;;;;;4954389;28;20231;-87
2022/11/28 09:06:31;;;;;;;25.15;15.52;;;9.20;1.00;;;;;;4931507;29;20455;-87
2022/11/28 09:08:56;;;;;;;27.07;14.07;;;9.20;1.00;;;;;;4952506;28;20204;-87
2022/11/28 09:11:22;;;;;;;22.23;14.03;;;9.20;1.00;;;;;;4952620;28;20952;-86
2022/11/28 09:13:49;;;;;;;23.80;13.67;;;9.20;1.00;;;;;;4941567;29;20432;-83
2022/11/28 09:16:14;;;;;;;19.90;13.43;;;9.20;1.00;;;;;;4948458;28;20209;-83
2022/11/28 09:18:40;;;;;;;76.03;67.83;;;9.20;1.00;;;;;;4953059;28;21042;-84
2022/11/28 09:21:12;;;;;;;24.47;16.43;;;9.30;1.00;;;;;;4961155;28;20432;-84
2022/11/28 09:23:42;;;;;;;23.20;15.90;;;9.30;1.00;;;;;;4952252;28;20553;-83
2022/11/28 09:26:08;;;;;;;23.00;13.77;;;9.40;1.00;;;;;;4955452;28;20504;-82
2022/11/28 09:28:34;;;;;;;23.43;14.87;;;9.40;1.00;;;;;;4955833;28;20479;-84
2022/11/28 09:31:01;;;;;;;21.57;13.50;;;9.50;1.00;;;;;;4961955;28;20498;-84
2022/11/28 09:33:27;;;;;;;21.87;13.93;;;9.50;1.00;;;;;;4954234;28;20185;-82
2022/11/28 09:35:54;;;;;;;22.70;14.57;;;9.60;1.00;;;;;;4955389;28;20837;-84
2022/11/28 09:38:20;;;;;;;27.30;14.33;;;9.60;1.00;;;;;;4964157;28;20213;-83
2022/11/28 09:40:47;;;;;;;21.30;12.67;;;9.60;1.00;;;;;;4957513;28;20429;-84
2022/11/28 09:43:42;;;;;;;20.93;14.70;;;9.70;1.00;;;;;;4959836;28;20902;-84
2022/11/28 09:46:14;;;;;;;22.60;16.23;;;9.70;1.00;;;;;;4953741;28;20471;-84
2022/11/28 09:48:49;;;;;;;20.80;13.10;;;9.80;1.00;;;;;;4952558;28;20472;-84
2022/11/28 09:51:30;;;;;;;27.60;14.13;;;9.80;1.00;;;;;;4957832;28;20437;-83
2022/11/28 09:54:04;;;;;;;35.73;25.73;;;9.90;1.00;;;;;;4961032;28;20431;-84
2022/11/28 09:56:30;;;;;;;19.53;12.60;;;10.00;1.00;;;;;;4967823;28;20427;-84
2022/11/28 09:59:01;;;;;;;20.73;12.03;;;10.00;1.00;;;;;;4968140;28;20570;-83
2022/11/28 10:01:45;;;;;;;31.80;28.27;;;10.00;1.00;;;;;;4970588;28;20184;-84
2022/11/28 10:04:24;;;;;;;20.53;12.33;;;10.10;1.00;;;;;;4963627;28;20439;-83
2022/11/28 10:07:07;;;;;;;14.57;10.60;;;10.10;1.00;;;;;;4960385;28;20416;-83
2022/11/28 10:09:50;;;;;;;16.97;10.70;;;10.10;1.00;;;;;;4958046;28;20452;-84
2022/11/28 10:12:25;;;;;;;12.77;9.87;;;10.20;1.00;;;;;;4966125;28;20519;-84
2022/11/28 10:15:18;;;;;;;13.57;9.20;;;10.20;1.00;;;;;;4962532;28;20495;-84
2022/11/28 10:17:59;;;;;;;10.27;8.30;;;10.30;1.00;;;;;;4966689;28;20471;-85
2022/11/28 10:20:31;;;;;;;12.53;8.50;;;10.30;1.00;;;;;;4985972;28;20419;-85
2022/11/28 10:23:01;;;;;;;12.13;9.00;;;10.30;1.00;;;;;;4976114;28;20431;-85
2022/11/28 10:25:35;;;;;;;10.83;8.27;;;10.30;1.00;;;;;;4958042;28;20476;-85
2022/11/28 10:28:05;;;;;;;12.90;8.23;;;10.30;1.00;;;;;;4968353;28;20456;-84
2022/11/28 10:30:36;;;;;;;9.30;7.00;;;10.30;1.00;;;;;;4965421;29;20421;-85
2022/11/28 10:33:25;;;;;;;10.50;8.33;;;10.30;1.00;;;;;;4966828;28;20424;-84
2022/11/28 10:35:56;;;;;;;12.27;8.50;;;10.30;1.00;;;;;;4950513;29;21037;-84
2022/11/28 10:38:26;;;;;;;9.70;7.90;;;10.30;1.00;;;;;;4930764;29;20438;-84
2022/11/28 10:41:03;;;;;;;8.57;6.90;;;10.30;1.00;;;;;;4949867;29;20445;-84
2022/11/28 10:44:12;;;;;;;9.50;7.43;;;10.40;1.00;;;;;;4975433;28;20421;-84
2022/11/28 10:46:56;;;;;;;10.60;7.00;;;10.40;1.00;;;;;;4957438;29;20435;-86
2022/11/28 10:49:40;;;;;;;9.17;7.50;;;10.40;1.00;;;;;;4966653;29;20983;-85
2022/11/28 10:52:25;;;;;;;13.90;8.13;;;10.40;1.00;;;;;;4972829;28;20445;-84
2022/11/28 10:55:06;;;;;;;8.03;7.23;;;10.40;1.00;;;;;;4946298;29;20433;-84
2022/11/28 10:57:42;;;;;;;10.77;7.53;;;10.40;1.00;;;;;;4969355;28;20507;-84
2022/11/28 11:00:11;;;;;;;9.23;6.53;;;10.40;1.00;;;;;;4969682;28;20907;-84
2022/11/28 11:02:55;;;;;;;7.80;6.20;;;10.40;1.00;;;;;;4972090;28;20851;-84
2022/11/28 11:05:25;;;;;;;6.97;6.13;;;10.40;1.00;;;;;;4951036;28;20526;-83
2022/11/28 11:07:54;;;;;;;10.50;7.10;;;10.50;1.00;;;;;;4960411;28;20472;-84
2022/11/28 11:10:28;;;;;;;9.93;6.50;;;10.50;1.00;;;;;;4956671;28;20448;-82
2022/11/28 11:12:54;;;;;;;9.80;7.67;;;10.50;1.00;;;;;;4947762;29;20432;-84
2022/11/28 11:15:30;;;;;;;6.47;5.87;;;10.50;1.00;;;;;;4955032;28;20467;-83
2022/11/28 11:17:56;;;;;;;7.13;5.50;;;10.50;1.00;;;;;;4956205;28;20208;-84
2022/11/28 11:20:22;;;;;;;5.10;4.53;;;10.60;1.00;;;;;;4956227;28;20826;-84
2022/11/28 11:23:21;;;;;;;9.30;5.50;;;10.60;1.00;;;;;;4957993;28;20456;-83
2022/11/28 11:25:48;;;;;;;9.43;6.23;;;10.60;1.00;;;;;;4957333;28;20212;-83
2022/11/28 11:28:38;;;;;;;6.83;5.50;;;10.60;1.00;;;;;;4962007;28;20493;-84
2022/11/28 11:31:13;;;;;;;6.03;5.20;;;10.60;1.00;;;;;;4967888;28;20515;-82
2022/11/28 11:33:38;;;;;;;10.17;7.57;;;10.60;1.00;;;;;;4969406;28;21022;-81
2022/11/28 11:36:20;;;;;;;8.30;6.33;;;10.60;1.00;;;;;;4953962;28;20540;-81
2022/11/28 11:38:45;;;;;;;7.90;6.23;;;10.60;1.00;;;;;;4952427;28;20259;-82
2022/11/28 11:41:25;;;;;;;6.60;5.90;;;10.60;1.00;;;;;;4953682;28;20516;-81
2022/11/28 11:43:50;;;;;;;6.53;5.80;;;10.50;1.00;;;;;;4952721;28;20180;-81
2022/11/28 11:46:16;;;;;;;7.30;6.60;;;10.50;1.00;;;;;;4952463;28;20459;-82
2022/11/28 11:48:43;;;;;;;8.03;6.27;;;10.50;1.00;;;;;;4947520;28;20703;-82
2022/11/28 11:51:23;;;;;;;9.13;7.33;;;10.50;1.00;;;;;;4951438;28;20185;-81
2022/11/28 11:54:14;;;;;;;6.77;6.03;;;10.50;1.00;;;;;;4949253;28;20436;-81
2022/11/28 11:56:42;;;;;;;7.17;6.47;;;10.60;1.00;;;;;;4947619;28;20450;-82
2022/11/28 11:59:17;;;;;;;7.80;6.33;;;10.60;1.00;;;;;;4953811;28;20471;-83
2022/11/28 12:01:45;;;;;;;11.30;7.17;;;10.60;1.00;;;;;;4953349;29;20440;-81
2022/11/28 12:04:22;;;;;;;9.53;7.20;;;10.60;1.00;;;;;;4951844;28;20428;-82
2022/11/28 12:06:50;;;;;;;7.20;6.43;;;10.60;1.00;;;;;;4945195;28;20946;-82
2022/11/28 12:09:40;;;;;;;8.77;7.23;;;10.60;1.00;;;;;;4956214;28;20559;-82
2022/11/28 12:12:16;;;;;;;14.30;6.70;;;10.60;1.00;;;;;;4947929;28;20429;-82
2022/11/28 12:14:43;;;;;;;7.47;6.77;;;10.70;1.00;;;;;;4950973;28;20550;-81
2022/11/28 12:17:19;;;;;;;8.77;7.30;;;10.70;1.00;;;;;;4954326;28;20440;-82
2022/11/28 12:20:03;;;;;;;8.20;7.20;;;10.70;1.00;;;;;;4957034;28;20466;-82
2022/11/28 12:22:46;;;;;;;12.83;9.13;;;10.70;1.00;;;;;;4951129;28;20439;-82
2022/11/28 12:25:30;;;;;;;14.40;10.50;;;10.70;1.00;;;;;;4946863;28;20474;-82
2022/11/28 12:28:11;;;;;;;16.13;10.73;;;10.60;1.00;;;;;;4953983;28;20466;-82
2022/11/28 12:31:08;;;;;;;16.83;12.90;;;10.60;1.00;;;;;;4952476;28;20939;-82
2022/11/28 12:33:38;;;;;;;12.10;8.93;;;10.60;1.00;;;;;;4953945;28;20436;-84
2022/11/28 12:36:29;;;;;;;9.73;8.73;;;10.70;1.00;;;;;;4953444;28;20507;-83
2022/11/28 12:39:18;;;;;;;8.77;7.50;;;10.70;1.00;;;;;;4950977;28;20448;-83
2022/11/28 12:41:47;;;;;;;15.30;7.60;;;10.70;1.00;;;;;;4951036;28;20516;-82
2022/11/28 12:44:24;;;;;;;8.63;7.83;;;10.70;1.00;;;;;;4952667;28;20483;-83
2022/11/28 12:47:16;;;;;;;8.57;6.40;;;10.70;1.00;;;;;;4950830;28;20444;-83
2022/11/28 12:49:56;;;;;;;7.90;6.80;;;10.80;1.00;;;;;;4947829;28;20796;-83
2022/11/28 12:52:51;;;;;;;10.20;6.67;;;10.70;1.00;;;;;;4954122;28;20455;-83
2022/11/28 12:55:26;;;;;;;9.43;8.00;;;10.70;1.00;;;;;;4954677;28;20464;-83
2022/11/28 12:58:17;;;;;;;7.90;7.00;;;10.70;1.00;;;;;;4947336;28;20448;-82
2022/11/28 13:01:07;;;;;;;10.97;8.00;;;10.80;1.00;;;;;;4955384;28;20462;-84
2022/11/28 13:04:03;;;;;;;10.10;7.20;;;10.70;1.00;;;;;;4955276;28;20448;-83
2022/11/28 13:06:54;;;;;;;11.50;6.40;;;10.80;1.00;;;;;;4941684;28;20455;-83
2022/11/28 13:09:33;;;;;;;10.77;6.83;;;10.80;1.00;;;;;;4961802;28;20914;-82
2022/11/28 13:12:14;;;;;;;11.03;8.47;;;10.80;1.00;;;;;;4956930;29;20448;-83
2022/11/28 13:14:55;;;;;;;10.43;8.40;;;10.80;1.00;;;;;;4951008;28;20451;-84
2022/11/28 13:17:53;;;;;;;9.40;7.70;;;10.80;1.00;;;;;;4957861;28;20527;-83